sensor_id;sensor_type;location;lat;lon;timestamp;P1;durP1;ratioP1;P2;durP2;ratioP2
17566;SDS011;8901;52.088;5.084;2024-03-02T00:01:54;19.23;;;17.93;;
17566;SDS011;8901;52.088;5.084;2024-03-02T00:04:22;19.30;;;18.10;;
17566;SDS011;8901;52.088;5.084;2024-03-02T00:06:51;18.60;;;17.40;;
17566;SDS011;8901;52.088;5.084;2024-03-02T00:09:19;18.40;;;17.10;;
17566;SDS011;8901;52.088;5.084;2024-03-02T00:11:46;17.43;;;16.30;;
17566;SDS011;8901;52.088;5.084;2024-03-02T00:14:14;17.47;;;16.27;;
17566;SDS011;8901;52.088;5.084;2024-03-02T00:16:42;16.53;;;15.53;;
17566;SDS011;8901;52.088;5.084;2024-03-02T00:19:10;17.07;;;16.07;;
17566;SDS011;8901;52.088;5.084;2024-03-02T00:21:38;16.17;;;15.17;;
17566;SDS011;8901;52.088;5.084;2024-03-02T00:24:07;16.20;;;15.20;;
17566;SDS011;8901;52.088;5.084;2024-03-02T00:26:45;16.70;;;15.70;;
17566;SDS011;8901;52.088;5.084;2024-03-02T00:29:13;16.40;;;15.27;;
17566;SDS011;8901;52.088;5.084;2024-03-02T00:31:44;16.00;;;15.00;;
17566;SDS011;8901;52.088;5.084;2024-03-02T00:34:13;15.60;;;14.60;;
17566;SDS011;8901;52.088;5.084;2024-03-02T00:36:42;15.77;;;14.87;;
17566;SDS011;8901;52.088;5.084;2024-03-02T00:39:11;14.77;;;13.87;;
17566;SDS011;8901;52.088;5.084;2024-03-02T00:41:40;15.30;;;14.20;;
17566;SDS011;8901;52.088;5.084;2024-03-02T00:44:09;13.93;;;13.00;;
17566;SDS011;8901;52.088;5.084;2024-03-02T00:46:38;12.90;;;12.10;;
17566;SDS011;8901;52.088;5.084;2024-03-02T00:49:05;13.10;;;12.40;;
17566;SDS011;8901;52.088;5.084;2024-03-02T00:51:38;13.00;;;12.20;;
17566;SDS011;8901;52.088;5.084;2024-03-02T00:54:08;13.73;;;12.93;;
17566;SDS011;8901;52.088;5.084;2024-03-02T00:56:36;12.60;;;11.90;;
17566;SDS011;8901;52.088;5.084;2024-03-02T00:59:03;12.87;;;12.10;;
17566;SDS011;8901;52.088;5.084;2024-03-02T01:01:30;12.83;;;12.03;;
17566;SDS011;8901;52.088;5.084;2024-03-02T01:03:57;12.80;;;12.10;;
17566;SDS011;8901;52.088;5.084;2024-03-02T01:06:25;12.50;;;11.80;;
17566;SDS011;8901;52.088;5.084;2024-03-02T01:08:52;13.00;;;12.30;;
17566;SDS011;8901;52.088;5.084;2024-03-02T01:11:22;12.60;;;11.80;;
17566;SDS011;8901;52.088;5.084;2024-03-02T01:13:49;14.00;;;13.20;;
17566;SDS011;8901;52.088;5.084;2024-03-02T01:16:17;12.70;;;12.00;;
17566;SDS011;8901;52.088;5.084;2024-03-02T01:18:44;12.47;;;11.77;;
17566;SDS011;8901;52.088;5.084;2024-03-02T01:21:11;12.50;;;11.80;;
17566;SDS011;8901;52.088;5.084;2024-03-02T01:23:39;12.50;;;11.80;;
17566;SDS011;8901;52.088;5.084;2024-03-02T01:26:07;12.60;;;11.80;;
17566;SDS011;8901;52.088;5.084;2024-03-02T01:28:36;12.07;;;11.37;;
17566;SDS011;8901;52.088;5.084;2024-03-02T01:31:03;12.80;;;12.00;;
17566;SDS011;8901;52.088;5.084;2024-03-02T01:33:30;11.87;;;11.27;;
17566;SDS011;8901;52.088;5.084;2024-03-02T01:35:57;12.00;;;11.30;;
17566;SDS011;8901;52.088;5.084;2024-03-02T01:38:27;12.00;;;11.30;;
17566;SDS011;8901;52.088;5.084;2024-03-02T01:40:54;12.50;;;11.80;;
17566;SDS011;8901;52.088;5.084;2024-03-02T01:43:23;12.33;;;11.63;;
17566;SDS011;8901;52.088;5.084;2024-03-02T01:45:52;11.80;;;11.10;;
17566;SDS011;8901;52.088;5.084;2024-03-02T01:48:19;12.27;;;11.57;;
17566;SDS011;8901;52.088;5.084;2024-03-02T01:50:46;12.57;;;11.77;;
17566;SDS011;8901;52.088;5.084;2024-03-02T01:53:14;11.70;;;11.10;;
17566;SDS011;8901;52.088;5.084;2024-03-02T01:55:41;11.70;;;11.00;;
17566;SDS011;8901;52.088;5.084;2024-03-02T01:58:09;11.70;;;11.10;;
17566;SDS011;8901;52.088;5.084;2024-03-02T02:00:36;11.40;;;10.80;;
17566;SDS011;8901;52.088;5.084;2024-03-02T02:03:05;11.60;;;10.90;;
17566;SDS011;8901;52.088;5.084;2024-03-02T02:05:33;11.60;;;10.83;;
17566;SDS011;8901;52.088;5.084;2024-03-02T02:08:00;12.10;;;11.37;;
17566;SDS011;8901;52.088;5.084;2024-03-02T02:10:28;11.07;;;10.47;;
17566;SDS011;8901;52.088;5.084;2024-03-02T02:12:56;10.67;;;10.07;;
17566;SDS011;8901;52.088;5.084;2024-03-02T02:15:27;10.43;;;9.83;;
17566;SDS011;8901;52.088;5.084;2024-03-02T02:17:54;10.77;;;10.17;;
17566;SDS011;8901;52.088;5.084;2024-03-02T02:20:23;10.60;;;10.00;;
17566;SDS011;8901;52.088;5.084;2024-03-02T02:22:56;11.10;;;10.50;;
17566;SDS011;8901;52.088;5.084;2024-03-02T02:25:22;10.63;;;10.03;;
17566;SDS011;8901;52.088;5.084;2024-03-02T02:27:49;10.70;;;10.10;;
17566;SDS011;8901;52.088;5.084;2024-03-02T02:30:18;10.93;;;10.33;;
17566;SDS011;8901;52.088;5.084;2024-03-02T02:32:45;11.60;;;11.00;;
17566;SDS011;8901;52.088;5.084;2024-03-02T02:35:13;10.93;;;10.13;;
17566;SDS011;8901;52.088;5.084;2024-03-02T02:40:10;9.80;;;9.30;;
17566;SDS011;8901;52.088;5.084;2024-03-02T02:42:37;11.60;;;10.90;;
17566;SDS011;8901;52.088;5.084;2024-03-02T02:45:05;11.10;;;10.50;;
17566;SDS011;8901;52.088;5.084;2024-03-02T02:47:32;10.93;;;10.33;;
17566;SDS011;8901;52.088;5.084;2024-03-02T02:50:00;11.73;;;11.03;;
17566;SDS011;8901;52.088;5.084;2024-03-02T02:52:31;11.70;;;11.00;;
17566;SDS011;8901;52.088;5.084;2024-03-02T02:55:00;10.80;;;10.20;;
17566;SDS011;8901;52.088;5.084;2024-03-02T02:57:29;11.30;;;10.70;;
17566;SDS011;8901;52.088;5.084;2024-03-02T03:00:00;12.13;;;11.43;;
17566;SDS011;8901;52.088;5.084;2024-03-02T03:02:29;12.03;;;11.33;;
17566;SDS011;8901;52.088;5.084;2024-03-02T03:04:56;12.50;;;11.70;;
17566;SDS011;8901;52.088;5.084;2024-03-02T03:07:24;12.37;;;11.67;;
17566;SDS011;8901;52.088;5.084;2024-03-02T03:09:51;12.23;;;11.53;;
17566;SDS011;8901;52.088;5.084;2024-03-02T03:12:18;13.37;;;12.57;;
17566;SDS011;8901;52.088;5.084;2024-03-02T03:14:47;12.20;;;11.50;;
17566;SDS011;8901;52.088;5.084;2024-03-02T03:17:15;12.27;;;11.50;;
17566;SDS011;8901;52.088;5.084;2024-03-02T03:19:43;12.20;;;11.40;;
17566;SDS011;8901;52.088;5.084;2024-03-02T03:22:10;12.30;;;11.60;;
17566;SDS011;8901;52.088;5.084;2024-03-02T03:24:38;12.30;;;11.60;;
17566;SDS011;8901;52.088;5.084;2024-03-02T03:27:05;12.57;;;11.87;;
17566;SDS011;8901;52.088;5.084;2024-03-02T03:29:33;12.27;;;11.57;;
17566;SDS011;8901;52.088;5.084;2024-03-02T03:32:01;12.90;;;12.20;;
17566;SDS011;8901;52.088;5.084;2024-03-02T03:34:32;13.80;;;12.80;;
17566;SDS011;8901;52.088;5.084;2024-03-02T03:36:59;13.60;;;12.80;;
17566;SDS011;8901;52.088;5.084;2024-03-02T03:39:26;13.83;;;12.93;;
17566;SDS011;8901;52.088;5.084;2024-03-02T03:41:54;14.17;;;13.27;;
17566;SDS011;8901;52.088;5.084;2024-03-02T03:44:22;14.50;;;13.57;;
17566;SDS011;8901;52.088;5.084;2024-03-02T03:46:49;14.37;;;13.47;;
17566;SDS011;8901;52.088;5.084;2024-03-02T03:49:18;12.87;;;12.07;;
17566;SDS011;8901;52.088;5.084;2024-03-02T03:51:45;13.87;;;13.07;;
17566;SDS011;8901;52.088;5.084;2024-03-02T03:54:13;12.77;;;12.07;;
17566;SDS011;8901;52.088;5.084;2024-03-02T03:56:40;12.70;;;11.90;;
17566;SDS011;8901;52.088;5.084;2024-03-02T03:59:07;13.50;;;12.70;;
17566;SDS011;8901;52.088;5.084;2024-03-02T04:01:35;13.20;;;12.40;;
17566;SDS011;8901;52.088;5.084;2024-03-02T04:04:02;13.90;;;12.70;;
17566;SDS011;8901;52.088;5.084;2024-03-02T04:06:31;13.13;;;12.33;;
17566;SDS011;8901;52.088;5.084;2024-03-02T04:08:58;13.73;;;12.93;;
17566;SDS011;8901;52.088;5.084;2024-03-02T04:11:25;12.60;;;11.90;;
17566;SDS011;8901;52.088;5.084;2024-03-02T04:13:52;13.60;;;12.70;;
17566;SDS011;8901;52.088;5.084;2024-03-02T04:16:19;12.60;;;11.90;;
17566;SDS011;8901;52.088;5.084;2024-03-02T04:18:46;13.27;;;12.50;;
17566;SDS011;8901;52.088;5.084;2024-03-02T04:21:14;13.23;;;12.43;;
17566;SDS011;8901;52.088;5.084;2024-03-02T04:23:42;12.87;;;12.17;;
17566;SDS011;8901;52.088;5.084;2024-03-02T04:26:10;14.10;;;13.20;;
17566;SDS011;8901;52.088;5.084;2024-03-02T04:28:37;14.00;;;13.20;;
17566;SDS011;8901;52.088;5.084;2024-03-02T04:31:04;14.10;;;13.30;;
17566;SDS011;8901;52.088;5.084;2024-03-02T04:33:31;14.63;;;13.53;;
17566;SDS011;8901;52.088;5.084;2024-03-02T04:35:58;14.43;;;13.53;;
17566;SDS011;8901;52.088;5.084;2024-03-02T04:38:26;14.40;;;13.50;;
17566;SDS011;8901;52.088;5.084;2024-03-02T04:40:55;14.90;;;13.87;;
17566;SDS011;8901;52.088;5.084;2024-03-02T04:43:22;15.07;;;14.07;;
17566;SDS011;8901;52.088;5.084;2024-03-02T04:45:49;14.67;;;13.77;;
17566;SDS011;8901;52.088;5.084;2024-03-02T04:48:16;14.60;;;13.70;;
17566;SDS011;8901;52.088;5.084;2024-03-02T04:50:44;14.80;;;13.90;;
17566;SDS011;8901;52.088;5.084;2024-03-02T04:53:11;16.00;;;14.80;;
17566;SDS011;8901;52.088;5.084;2024-03-02T04:55:38;15.37;;;14.37;;
17566;SDS011;8901;52.088;5.084;2024-03-02T04:58:36;15.30;;;14.30;;
17566;SDS011;8901;52.088;5.084;2024-03-02T05:01:04;15.47;;;14.47;;
17566;SDS011;8901;52.088;5.084;2024-03-02T05:03:31;15.13;;;14.23;;
17566;SDS011;8901;52.088;5.084;2024-03-02T05:06:00;15.60;;;14.60;;
17566;SDS011;8901;52.088;5.084;2024-03-02T05:08:27;15.40;;;14.50;;
17566;SDS011;8901;52.088;5.084;2024-03-02T05:10:54;14.70;;;13.80;;
17566;SDS011;8901;52.088;5.084;2024-03-02T05:13:44;15.07;;;14.17;;
17566;SDS011;8901;52.088;5.084;2024-03-02T05:16:10;14.73;;;13.83;;
17566;SDS011;8901;52.088;5.084;2024-03-02T05:18:37;14.30;;;13.50;;
17566;SDS011;8901;52.088;5.084;2024-03-02T05:21:05;15.37;;;14.47;;
17566;SDS011;8901;52.088;5.084;2024-03-02T05:23:32;15.33;;;14.33;;
17566;SDS011;8901;52.088;5.084;2024-03-02T05:25:59;15.40;;;14.20;;
17566;SDS011;8901;52.088;5.084;2024-03-02T05:28:26;14.90;;;13.90;;
17566;SDS011;8901;52.088;5.084;2024-03-02T05:30:55;15.53;;;14.53;;
17566;SDS011;8901;52.088;5.084;2024-03-02T05:33:22;16.00;;;15.00;;
17566;SDS011;8901;52.088;5.084;2024-03-02T05:35:49;15.37;;;14.40;;
17566;SDS011;8901;52.088;5.084;2024-03-02T05:38:17;15.03;;;14.13;;
17566;SDS011;8901;52.088;5.084;2024-03-02T05:40:44;16.27;;;15.27;;
17566;SDS011;8901;52.088;5.084;2024-03-02T05:43:11;16.00;;;14.93;;
17566;SDS011;8901;52.088;5.084;2024-03-02T05:45:38;16.13;;;15.13;;
17566;SDS011;8901;52.088;5.084;2024-03-02T05:48:07;15.77;;;14.77;;
17566;SDS011;8901;52.088;5.084;2024-03-02T05:50:35;16.20;;;15.20;;
17566;SDS011;8901;52.088;5.084;2024-03-02T05:53:02;16.10;;;15.10;;
17566;SDS011;8901;52.088;5.084;2024-03-02T05:55:29;15.23;;;14.33;;
17566;SDS011;8901;52.088;5.084;2024-03-02T05:57:57;15.60;;;14.60;;
17566;SDS011;8901;52.088;5.084;2024-03-02T06:00:40;16.30;;;15.30;;
17566;SDS011;8901;52.088;5.084;2024-03-02T06:03:09;15.30;;;14.40;;
17566;SDS011;8901;52.088;5.084;2024-03-02T06:05:36;15.70;;;14.70;;
17566;SDS011;8901;52.088;5.084;2024-03-02T06:08:04;15.27;;;14.30;;
17566;SDS011;8901;52.088;5.084;2024-03-02T06:10:31;16.20;;;15.10;;
17566;SDS011;8901;52.088;5.084;2024-03-02T06:12:58;15.73;;;14.80;;
17566;SDS011;8901;52.088;5.084;2024-03-02T06:15:25;16.37;;;15.37;;
17566;SDS011;8901;52.088;5.084;2024-03-02T06:17:52;15.80;;;14.70;;
17566;SDS011;8901;52.088;5.084;2024-03-02T06:20:21;15.97;;;15.00;;
17566;SDS011;8901;52.088;5.084;2024-03-02T06:22:48;16.40;;;15.40;;
17566;SDS011;8901;52.088;5.084;2024-03-02T06:25:15;15.70;;;14.70;;
17566;SDS011;8901;52.088;5.084;2024-03-02T06:27:43;16.37;;;15.17;;
17566;SDS011;8901;52.088;5.084;2024-03-02T06:30:10;16.50;;;15.40;;
17566;SDS011;8901;52.088;5.084;2024-03-02T06:32:38;15.57;;;14.60;;
17566;SDS011;8901;52.088;5.084;2024-03-02T06:35:05;15.73;;;14.63;;
17566;SDS011;8901;52.088;5.084;2024-03-02T06:37:36;15.70;;;14.70;;
17566;SDS011;8901;52.088;5.084;2024-03-02T06:40:05;16.30;;;15.20;;
17566;SDS011;8901;52.088;5.084;2024-03-02T06:42:33;15.37;;;14.47;;
17566;SDS011;8901;52.088;5.084;2024-03-02T06:45:00;15.93;;;14.93;;
17566;SDS011;8901;52.088;5.084;2024-03-02T06:47:27;16.50;;;15.40;;
17566;SDS011;8901;52.088;5.084;2024-03-02T06:49:54;16.27;;;15.17;;
17566;SDS011;8901;52.088;5.084;2024-03-02T06:52:22;16.30;;;15.30;;
17566;SDS011;8901;52.088;5.084;2024-03-02T06:54:51;15.30;;;14.20;;
17566;SDS011;8901;52.088;5.084;2024-03-02T06:57:18;16.30;;;15.20;;
17566;SDS011;8901;52.088;5.084;2024-03-02T06:59:46;15.77;;;14.70;;
17566;SDS011;8901;52.088;5.084;2024-03-02T07:02:15;16.63;;;15.53;;
17566;SDS011;8901;52.088;5.084;2024-03-02T07:04:42;15.43;;;14.53;;
17566;SDS011;8901;52.088;5.084;2024-03-02T07:07:10;16.23;;;15.23;;
17566;SDS011;8901;52.088;5.084;2024-03-02T07:09:37;16.30;;;15.30;;
17566;SDS011;8901;52.088;5.084;2024-03-02T07:12:06;15.90;;;14.90;;
17566;SDS011;8901;52.088;5.084;2024-03-02T07:14:34;15.63;;;14.63;;
17566;SDS011;8901;52.088;5.084;2024-03-02T07:17:33;16.17;;;15.17;;
17566;SDS011;8901;52.088;5.084;2024-03-02T07:20:02;15.97;;;14.87;;
17566;SDS011;8901;52.088;5.084;2024-03-02T07:22:29;16.83;;;15.83;;
17566;SDS011;8901;52.088;5.084;2024-03-02T07:24:56;16.33;;;15.23;;
17566;SDS011;8901;52.088;5.084;2024-03-02T07:27:25;15.90;;;14.80;;
17566;SDS011;8901;52.088;5.084;2024-03-02T07:29:52;15.97;;;14.97;;
17566;SDS011;8901;52.088;5.084;2024-03-02T07:32:19;16.03;;;15.03;;
17566;SDS011;8901;52.088;5.084;2024-03-02T07:34:46;15.27;;;14.37;;
17566;SDS011;8901;52.088;5.084;2024-03-02T07:37:15;15.70;;;14.50;;
17566;SDS011;8901;52.088;5.084;2024-03-02T07:39:43;15.80;;;14.80;;
17566;SDS011;8901;52.088;5.084;2024-03-02T07:42:11;16.63;;;14.93;;
17566;SDS011;8901;52.088;5.084;2024-03-02T07:44:39;15.83;;;14.73;;
17566;SDS011;8901;52.088;5.084;2024-03-02T07:47:07;14.63;;;13.70;;
17566;SDS011;8901;52.088;5.084;2024-03-02T07:49:34;15.53;;;14.53;;
17566;SDS011;8901;52.088;5.084;2024-03-02T07:52:01;15.50;;;14.50;;
17566;SDS011;8901;52.088;5.084;2024-03-02T07:54:28;16.50;;;15.40;;
17566;SDS011;8901;52.088;5.084;2024-03-02T07:56:56;17.30;;;16.20;;
17566;SDS011;8901;52.088;5.084;2024-03-02T07:59:23;16.40;;;15.40;;
17566;SDS011;8901;52.088;5.084;2024-03-02T08:01:52;17.37;;;16.07;;
17566;SDS011;8901;52.088;5.084;2024-03-02T08:04:20;16.70;;;15.70;;
17566;SDS011;8901;52.088;5.084;2024-03-02T08:06:48;16.33;;;15.40;;
17566;SDS011;8901;52.088;5.084;2024-03-02T08:09:15;17.50;;;16.37;;
17566;SDS011;8901;52.088;5.084;2024-03-02T08:11:42;16.87;;;15.70;;
17566;SDS011;8901;52.088;5.084;2024-03-02T08:14:09;14.87;;;13.97;;
17566;SDS011;8901;52.088;5.084;2024-03-02T08:16:36;15.27;;;14.27;;
17566;SDS011;8901;52.088;5.084;2024-03-02T08:19:05;15.90;;;14.80;;
17566;SDS011;8901;52.088;5.084;2024-03-02T08:21:34;15.43;;;14.33;;
17566;SDS011;8901;52.088;5.084;2024-03-02T08:24:01;14.87;;;13.97;;
17566;SDS011;8901;52.088;5.084;2024-03-02T08:26:28;15.80;;;14.63;;
17566;SDS011;8901;52.088;5.084;2024-03-02T08:28:56;15.73;;;14.63;;
17566;SDS011;8901;52.088;5.084;2024-03-02T08:31:24;15.80;;;14.70;;
17566;SDS011;8901;52.088;5.084;2024-03-02T08:33:51;15.80;;;14.80;;
17566;SDS011;8901;52.088;5.084;2024-03-02T08:36:19;15.70;;;14.60;;
17566;SDS011;8901;52.088;5.084;2024-03-02T08:38:48;13.70;;;12.80;;
17566;SDS011;8901;52.088;5.084;2024-03-02T08:41:15;14.87;;;13.97;;
17566;SDS011;8901;52.088;5.084;2024-03-02T08:43:43;15.50;;;14.40;;
17566;SDS011;8901;52.088;5.084;2024-03-02T08:46:10;15.60;;;14.50;;
17566;SDS011;8901;52.088;5.084;2024-03-02T08:48:38;16.20;;;15.03;;
17566;SDS011;8901;52.088;5.084;2024-03-02T08:51:06;15.10;;;14.17;;
17566;SDS011;8901;52.088;5.084;2024-03-02T08:53:36;16.30;;;15.20;;
17566;SDS011;8901;52.088;5.084;2024-03-02T08:56:04;15.50;;;14.50;;
17566;SDS011;8901;52.088;5.084;2024-03-02T08:58:31;16.17;;;15.07;;
17566;SDS011;8901;52.088;5.084;2024-03-02T09:00:58;15.97;;;14.67;;
17566;SDS011;8901;52.088;5.084;2024-03-02T09:03:25;14.57;;;13.60;;
17566;SDS011;8901;52.088;5.084;2024-03-02T09:05:53;14.27;;;13.37;;
17566;SDS011;8901;52.088;5.084;2024-03-02T09:08:21;15.03;;;13.87;;
17566;SDS011;8901;52.088;5.084;2024-03-02T09:10:50;15.00;;;14.10;;
17566;SDS011;8901;52.088;5.084;2024-03-02T09:13:17;14.53;;;13.43;;
17566;SDS011;8901;52.088;5.084;2024-03-02T09:15:44;16.47;;;14.93;;
17566;SDS011;8901;52.088;5.084;2024-03-02T09:18:12;15.70;;;14.70;;
17566;SDS011;8901;52.088;5.084;2024-03-02T09:20:39;14.70;;;13.63;;
17566;SDS011;8901;52.088;5.084;2024-03-02T09:23:06;14.93;;;13.80;;
17566;SDS011;8901;52.088;5.084;2024-03-02T09:25:33;15.60;;;14.50;;
17566;SDS011;8901;52.088;5.084;2024-03-02T09:28:03;15.33;;;14.33;;
17566;SDS011;8901;52.088;5.084;2024-03-02T09:30:30;15.63;;;14.50;;
17566;SDS011;8901;52.088;5.084;2024-03-02T09:32:57;15.63;;;14.40;;
17566;SDS011;8901;52.088;5.084;2024-03-02T09:35:24;14.33;;;13.33;;
17566;SDS011;8901;52.088;5.084;2024-03-02T09:37:51;15.33;;;14.30;;
17566;SDS011;8901;52.088;5.084;2024-03-02T09:40:21;16.30;;;14.90;;
17566;SDS011;8901;52.088;5.084;2024-03-02T09:42:49;16.37;;;15.20;;
17566;SDS011;8901;52.088;5.084;2024-03-02T09:45:20;16.93;;;15.63;;
17566;SDS011;8901;52.088;5.084;2024-03-02T09:47:49;16.63;;;15.40;;
17566;SDS011;8901;52.088;5.084;2024-03-02T09:50:16;15.97;;;14.87;;
17566;SDS011;8901;52.088;5.084;2024-03-02T09:52:44;17.20;;;15.90;;
17566;SDS011;8901;52.088;5.084;2024-03-02T09:55:15;16.83;;;15.60;;
17566;SDS011;8901;52.088;5.084;2024-03-02T09:57:44;16.83;;;15.63;;
17566;SDS011;8901;52.088;5.084;2024-03-02T10:00:14;15.50;;;14.40;;
17566;SDS011;8901;52.088;5.084;2024-03-02T10:02:42;17.00;;;15.60;;
17566;SDS011;8901;52.088;5.084;2024-03-02T10:05:11;16.13;;;14.97;;
17566;SDS011;8901;52.088;5.084;2024-03-02T10:07:38;16.47;;;15.20;;
17566;SDS011;8901;52.088;5.084;2024-03-02T10:10:12;17.43;;;15.97;;
17566;SDS011;8901;52.088;5.084;2024-03-02T10:12:40;16.93;;;15.60;;
17566;SDS011;8901;52.088;5.084;2024-03-02T10:15:07;14.60;;;13.20;;
17566;SDS011;8901;52.088;5.084;2024-03-02T10:17:35;12.20;;;11.40;;
17566;SDS011;8901;52.088;5.084;2024-03-02T10:20:22;13.93;;;12.93;;
17566;SDS011;8901;52.088;5.084;2024-03-02T10:22:50;13.70;;;12.60;;
17566;SDS011;8901;52.088;5.084;2024-03-02T10:25:30;15.20;;;12.00;;
17566;SDS011;8901;52.088;5.084;2024-03-02T10:27:58;14.80;;;13.70;;
17566;SDS011;8901;52.088;5.084;2024-03-02T10:30:25;15.30;;;14.10;;
17566;SDS011;8901;52.088;5.084;2024-03-02T10:32:53;14.00;;;13.00;;
17566;SDS011;8901;52.088;5.084;2024-03-02T10:35:22;14.40;;;13.30;;
17566;SDS011;8901;52.088;5.084;2024-03-02T10:37:50;14.70;;;13.70;;
17566;SDS011;8901;52.088;5.084;2024-03-02T10:40:21;14.90;;;13.70;;
17566;SDS011;8901;52.088;5.084;2024-03-02T10:42:49;14.70;;;13.57;;
17566;SDS011;8901;52.088;5.084;2024-03-02T10:45:17;13.40;;;12.50;;
17566;SDS011;8901;52.088;5.084;2024-03-02T10:47:46;14.50;;;13.33;;
17566;SDS011;8901;52.088;5.084;2024-03-02T10:50:13;15.20;;;14.30;;
17566;SDS011;8901;52.088;5.084;2024-03-02T10:52:42;12.90;;;12.10;;
17566;SDS011;8901;52.088;5.084;2024-03-02T10:55:09;14.03;;;13.03;;
17566;SDS011;8901;52.088;5.084;2024-03-02T10:57:40;15.20;;;14.00;;
17566;SDS011;8901;52.088;5.084;2024-03-02T11:00:10;15.47;;;14.33;;
17566;SDS011;8901;52.088;5.084;2024-03-02T11:02:40;15.70;;;14.50;;
17566;SDS011;8901;52.088;5.084;2024-03-02T11:05:08;16.00;;;15.00;;
17566;SDS011;8901;52.088;5.084;2024-03-02T11:07:37;15.77;;;14.57;;
17566;SDS011;8901;52.088;5.084;2024-03-02T11:10:06;16.17;;;15.07;;
17566;SDS011;8901;52.088;5.084;2024-03-02T11:12:36;15.03;;;13.93;;
17566;SDS011;8901;52.088;5.084;2024-03-02T11:15:07;16.23;;;15.10;;
17566;SDS011;8901;52.088;5.084;2024-03-02T11:17:36;17.83;;;16.50;;
17566;SDS011;8901;52.088;5.084;2024-03-02T11:20:05;17.70;;;16.40;;
17566;SDS011;8901;52.088;5.084;2024-03-02T11:22:34;15.43;;;14.30;;
17566;SDS011;8901;52.088;5.084;2024-03-02T11:25:01;14.10;;;13.20;;
17566;SDS011;8901;52.088;5.084;2024-03-02T11:30:24;16.93;;;15.87;;
17566;SDS011;8901;52.088;5.084;2024-03-02T11:33:11;17.37;;;16.17;;
17566;SDS011;8901;52.088;5.084;2024-03-02T11:35:40;16.47;;;15.37;;
17566;SDS011;8901;52.088;5.084;2024-03-02T11:38:08;17.93;;;16.67;;
17566;SDS011;8901;52.088;5.084;2024-03-02T11:40:36;17.37;;;16.27;;
17566;SDS011;8901;52.088;5.084;2024-03-02T11:43:03;18.57;;;17.37;;
17566;SDS011;8901;52.088;5.084;2024-03-02T11:45:35;15.93;;;14.93;;
17566;SDS011;8901;52.088;5.084;2024-03-02T11:48:05;16.40;;;15.30;;
17566;SDS011;8901;52.088;5.084;2024-03-02T11:50:33;17.50;;;16.20;;
17566;SDS011;8901;52.088;5.084;2024-03-02T11:53:02;17.80;;;16.70;;
17566;SDS011;8901;52.088;5.084;2024-03-02T11:55:33;18.13;;;16.70;;
17566;SDS011;8901;52.088;5.084;2024-03-02T11:58:01;17.40;;;16.10;;
17566;SDS011;8901;52.088;5.084;2024-03-02T12:00:29;18.33;;;17.13;;
17566;SDS011;8901;52.088;5.084;2024-03-02T12:03:00;17.30;;;16.20;;
17566;SDS011;8901;52.088;5.084;2024-03-02T12:05:28;16.23;;;15.23;;
17566;SDS011;8901;52.088;5.084;2024-03-02T12:07:56;17.80;;;16.50;;
17566;SDS011;8901;52.088;5.084;2024-03-02T12:10:23;18.90;;;17.33;;
17566;SDS011;8901;52.088;5.084;2024-03-02T12:12:55;17.20;;;16.13;;
17566;SDS011;8901;52.088;5.084;2024-03-02T12:15:23;15.77;;;14.70;;
17566;SDS011;8901;52.088;5.084;2024-03-02T12:17:52;16.70;;;15.60;;
17566;SDS011;8901;52.088;5.084;2024-03-02T12:20:21;16.00;;;15.00;;
17566;SDS011;8901;52.088;5.084;2024-03-02T12:22:49;20.10;;;18.70;;
17566;SDS011;8901;52.088;5.084;2024-03-02T12:25:17;18.50;;;17.30;;
17566;SDS011;8901;52.088;5.084;2024-03-02T12:27:44;20.23;;;18.77;;
17566;SDS011;8901;52.088;5.084;2024-03-02T12:30:12;17.93;;;16.70;;
17566;SDS011;8901;52.088;5.084;2024-03-02T12:32:40;18.43;;;17.13;;
17566;SDS011;8901;52.088;5.084;2024-03-02T12:35:07;16.07;;;14.93;;
17566;SDS011;8901;52.088;5.084;2024-03-02T12:37:43;17.60;;;16.40;;
17566;SDS011;8901;52.088;5.084;2024-03-02T12:40:10;15.80;;;14.70;;
17566;SDS011;8901;52.088;5.084;2024-03-02T12:42:38;15.37;;;14.23;;
17566;SDS011;8901;52.088;5.084;2024-03-02T12:45:05;16.90;;;15.60;;
17566;SDS011;8901;52.088;5.084;2024-03-02T12:47:33;16.83;;;15.40;;
17566;SDS011;8901;52.088;5.084;2024-03-02T12:50:00;16.70;;;15.60;;
17566;SDS011;8901;52.088;5.084;2024-03-02T12:52:28;20.53;;;18.93;;
17566;SDS011;8901;52.088;5.084;2024-03-02T12:54:56;19.40;;;18.10;;
17566;SDS011;8901;52.088;5.084;2024-03-02T12:57:27;21.10;;;19.70;;
17566;SDS011;8901;52.088;5.084;2024-03-02T12:59:57;19.50;;;18.10;;
17566;SDS011;8901;52.088;5.084;2024-03-02T13:02:27;19.90;;;18.43;;
17566;SDS011;8901;52.088;5.084;2024-03-02T13:04:54;17.70;;;16.60;;
17566;SDS011;8901;52.088;5.084;2024-03-02T13:07:23;19.50;;;18.07;;
17566;SDS011;8901;52.088;5.084;2024-03-02T13:09:51;19.30;;;17.90;;
17566;SDS011;8901;52.088;5.084;2024-03-02T13:12:22;17.67;;;16.50;;
17566;SDS011;8901;52.088;5.084;2024-03-02T13:14:49;16.80;;;15.70;;
17566;SDS011;8901;52.088;5.084;2024-03-02T13:17:17;15.87;;;14.87;;
17566;SDS011;8901;52.088;5.084;2024-03-02T13:19:50;15.70;;;14.70;;
17566;SDS011;8901;52.088;5.084;2024-03-02T13:22:19;15.90;;;14.90;;
17566;SDS011;8901;52.088;5.084;2024-03-02T13:24:46;18.60;;;17.30;;
17566;SDS011;8901;52.088;5.084;2024-03-02T13:27:13;18.17;;;17.03;;
17566;SDS011;8901;52.088;5.084;2024-03-02T13:29:42;17.37;;;16.27;;
17566;SDS011;8901;52.088;5.084;2024-03-02T13:32:10;16.43;;;15.43;;
17566;SDS011;8901;52.088;5.084;2024-03-02T13:34:37;19.33;;;18.03;;
17566;SDS011;8901;52.088;5.084;2024-03-02T13:37:04;19.03;;;17.63;;
17566;SDS011;8901;52.088;5.084;2024-03-02T13:39:32;17.10;;;15.90;;
17566;SDS011;8901;52.088;5.084;2024-03-02T13:42:05;16.27;;;15.17;;
17566;SDS011;8901;52.088;5.084;2024-03-02T13:44:33;17.97;;;16.87;;
17566;SDS011;8901;52.088;5.084;2024-03-02T13:47:03;15.27;;;14.30;;
17566;SDS011;8901;52.088;5.084;2024-03-02T13:49:30;14.97;;;14.07;;
17566;SDS011;8901;52.088;5.084;2024-03-02T13:52:01;16.83;;;15.73;;
17566;SDS011;8901;52.088;5.084;2024-03-02T13:54:36;15.57;;;14.67;;
17566;SDS011;8901;52.088;5.084;2024-03-02T13:57:04;17.53;;;15.87;;
17566;SDS011;8901;52.088;5.084;2024-03-02T13:59:31;17.43;;;16.33;;
17566;SDS011;8901;52.088;5.084;2024-03-02T14:01:59;18.07;;;16.77;;
17566;SDS011;8901;52.088;5.084;2024-03-02T14:04:27;15.60;;;14.60;;
17566;SDS011;8901;52.088;5.084;2024-03-02T14:06:55;16.73;;;15.63;;
17566;SDS011;8901;52.088;5.084;2024-03-02T14:09:22;16.83;;;15.63;;
17566;SDS011;8901;52.088;5.084;2024-03-02T14:11:49;16.37;;;15.27;;
17566;SDS011;8901;52.088;5.084;2024-03-02T14:14:17;16.80;;;15.60;;
17566;SDS011;8901;52.088;5.084;2024-03-02T14:16:44;16.00;;;15.00;;
17566;SDS011;8901;52.088;5.084;2024-03-02T14:19:12;15.50;;;14.50;;
17566;SDS011;8901;52.088;5.084;2024-03-02T14:21:41;15.70;;;14.70;;
17566;SDS011;8901;52.088;5.084;2024-03-02T14:24:08;18.00;;;16.80;;
17566;SDS011;8901;52.088;5.084;2024-03-02T14:26:36;17.33;;;15.93;;
17566;SDS011;8901;52.088;5.084;2024-03-02T14:29:03;16.93;;;15.80;;
17566;SDS011;8901;52.088;5.084;2024-03-02T14:31:30;18.97;;;17.67;;
17566;SDS011;8901;52.088;5.084;2024-03-02T14:33:57;18.60;;;17.20;;
17566;SDS011;8901;52.088;5.084;2024-03-02T14:36:25;18.43;;;17.20;;
17566;SDS011;8901;52.088;5.084;2024-03-02T14:38:54;17.67;;;16.43;;
17566;SDS011;8901;52.088;5.084;2024-03-02T14:41:21;16.07;;;14.93;;
17566;SDS011;8901;52.088;5.084;2024-03-02T14:43:49;16.37;;;15.20;;
17566;SDS011;8901;52.088;5.084;2024-03-02T14:46:16;14.70;;;13.70;;
17566;SDS011;8901;52.088;5.084;2024-03-02T14:48:44;16.83;;;15.67;;